createdAt,value
2023-03-21T00:02:13.666Z,55.30
2023-03-21T00:05:16.520Z,55.53
2023-03-21T00:08:19.898Z,55.61
2023-03-21T00:11:22.253Z,55.62
2023-03-21T00:14:26.198Z,56.00
2023-03-21T00:17:31.256Z,56.11
2023-03-21T00:20:37.999Z,56.26
2023-03-21T00:23:40.314Z,56.00
2023-03-21T00:26:42.687Z,55.93
2023-03-21T00:29:45.014Z,55.92
2023-03-21T00:32:55.338Z,56.39
2023-03-21T00:36:04.965Z,56.07
2023-03-21T00:39:09.881Z,56.30
2023-03-21T00:42:12.232Z,56.41
2023-03-21T00:45:15.560Z,56.50
2023-03-21T00:48:19.095Z,57.01
2023-03-21T00:51:28.895Z,56.57
2023-03-21T00:54:31.199Z,56.72
2023-03-21T00:57:39.315Z,57.21
2023-03-21T01:00:42.428Z,57.33
2023-03-21T01:03:50.944Z,56.73
2023-03-21T01:06:54.197Z,56.76
2023-03-21T01:09:56.556Z,57.05
2023-03-21T01:12:59.359Z,56.69
2023-03-21T01:16:06.978Z,57.19
2023-03-21T01:19:24.007Z,57.45
2023-03-21T01:22:27.674Z,57.21
2023-03-21T01:25:30.315Z,57.47
2023-03-21T01:28:33.347Z,57.51
2023-03-21T01:31:35.770Z,57.55
2023-03-21T01:34:38.212Z,58.23
2023-03-21T01:37:41.234Z,58.04
2023-03-21T01:40:45.860Z,57.85
2023-03-21T01:43:56.663Z,57.70
2023-03-21T01:47:12.944Z,57.70
2023-03-21T01:50:37.088Z,57.85
2023-03-21T01:54:12.757Z,57.83
2023-03-21T01:57:40.998Z,58.88
2023-03-21T02:00:50.825Z,58.66
2023-03-21T02:04:16.957Z,58.56
2023-03-21T02:07:43.985Z,58.28
2023-03-21T02:10:51.508Z,58.99
2023-03-21T02:14:07.649Z,58.48
2023-03-21T02:17:49.469Z,58.02
2023-03-21T02:21:33.210Z,58.02
2023-03-21T02:25:13.402Z,57.87
2023-03-21T02:28:34.388Z,58.01
2023-03-21T02:32:09.279Z,58.06
2023-03-21T02:35:31.078Z,58.50
2023-03-21T02:38:42.882Z,57.75
2023-03-21T02:41:49.529Z,57.71
2023-03-21T02:45:18.936Z,57.50
2023-03-21T02:48:49.723Z,58.05
2023-03-21T02:51:54.290Z,57.82
2023-03-21T02:55:00.112Z,58.15
2023-03-21T02:58:17.412Z,57.77
2023-03-21T03:01:26.029Z,57.87
2023-03-21T03:04:28.926Z,57.77
2023-03-21T03:07:45.694Z,57.73
2023-03-21T03:11:00.418Z,57.40
2023-03-21T03:14:25.432Z,57.60
2023-03-21T03:17:37.432Z,57.60
2023-03-21T03:21:04.802Z,58.05
2023-03-21T03:24:11.547Z,57.92
2023-03-21T03:27:18.578Z,57.33
2023-03-21T03:30:23.811Z,57.75
2023-03-21T03:33:28.264Z,58.41
2023-03-21T03:36:36.976Z,58.08
2023-03-21T03:39:51.737Z,58.00
2023-03-21T03:42:55.511Z,57.79
2023-03-21T03:46:14.657Z,57.92
2023-03-21T03:49:24.274Z,58.27
2023-03-21T03:52:30.014Z,58.11
2023-03-21T03:55:38.856Z,57.82
2023-03-21T03:58:49.325Z,57.93
2023-03-21T04:01:55.150Z,58.11
2023-03-21T04:04:57.941Z,57.55
2023-03-21T04:08:00.561Z,57.95
2023-03-21T04:11:12.867Z,57.89
2023-03-21T04:14:16.052Z,58.11
2023-03-21T04:17:20.242Z,57.99
2023-03-21T04:20:35.992Z,57.60
2023-03-21T04:23:40.810Z,58.17
2023-03-21T04:26:44.257Z,57.83
2023-03-21T04:30:13.124Z,58.18
2023-03-21T04:33:26.094Z,58.07
2023-03-21T04:36:38.875Z,57.38
2023-03-21T04:39:43.224Z,56.85
2023-03-21T04:42:47.038Z,55.53
2023-03-21T04:45:50.557Z,55.26
2023-03-21T04:48:53.377Z,55.54
2023-03-21T04:51:55.808Z,54.59
2023-03-21T04:54:58.349Z,54.57
2023-03-21T04:58:01.363Z,54.72
2023-03-21T05:01:06.053Z,54.26
2023-03-21T05:04:08.487Z,53.87
2023-03-21T05:07:11.438Z,54.29
2023-03-21T05:10:13.843Z,54.99
2023-03-21T05:13:17.021Z,54.68
2023-03-21T05:16:19.339Z,54.60
2023-03-21T05:19:35.311Z,55.97
2023-03-21T05:22:40.863Z,56.17
2023-03-21T05:25:47.099Z,55.98
2023-03-21T05:28:53.514Z,56.61
2023-03-21T05:31:57.018Z,55.72
2023-03-21T05:34:59.649Z,55.04
2023-03-21T05:38:02.838Z,53.95
2023-03-21T05:46:55.203Z,54.14
2023-03-21T05:50:04.581Z,53.37
2023-03-21T05:53:08.437Z,52.88
2023-03-21T05:56:10.926Z,51.96
2023-03-21T05:59:21.978Z,50.72
2023-03-21T06:02:28.364Z,50.51
2023-03-21T06:05:34.416Z,50.40
2023-03-21T06:08:36.891Z,50.40
2023-03-21T06:11:48.488Z,50.20
2023-03-21T06:14:53.384Z,50.20
2023-03-21T06:18:05.837Z,50.04
2023-03-21T06:21:09.882Z,50.51
2023-03-21T06:24:14.866Z,50.70
2023-03-21T06:27:17.525Z,50.07
2023-03-21T06:30:27.147Z,49.41
2023-03-21T06:33:39.849Z,49.25
2023-03-21T06:37:16.194Z,48.16
2023-03-21T06:41:26.894Z,46.86
2023-03-21T06:44:35.348Z,47.52
2023-03-21T06:47:42.300Z,46.74
2023-03-21T06:50:54.021Z,45.64
2023-03-21T06:53:58.190Z,44.09
2023-03-21T06:57:07.514Z,43.38
2023-03-21T07:00:11.679Z,43.15
2023-03-21T07:03:19.367Z,42.13
2023-03-21T07:06:26.627Z,42.52
2023-03-21T07:09:29.865Z,42.59
2023-03-21T07:12:37.726Z,42.16
2023-03-21T07:15:57.480Z,42.23
2023-03-21T07:19:00.841Z,41.74
2023-03-21T07:22:03.350Z,41.66
2023-03-21T07:25:08.325Z,41.96
2023-03-21T07:28:15.473Z,40.79
2023-03-21T07:31:17.943Z,40.49
2023-03-21T07:34:20.863Z,39.50
2023-03-21T07:37:24.040Z,39.35
2023-03-21T07:40:27.909Z,38.86
2023-03-21T07:43:30.506Z,37.58
2023-03-21T07:46:34.608Z,38.46
2023-03-21T07:49:37.855Z,37.94
2023-03-21T07:52:40.336Z,37.88
2023-03-21T07:55:42.716Z,37.50
2023-03-21T07:58:45.453Z,36.79
2023-03-21T08:01:48.062Z,37.52
2023-03-21T08:04:51.355Z,35.67
2023-03-21T08:07:53.856Z,35.41
2023-03-21T08:10:56.244Z,34.73
2023-03-21T08:13:59.714Z,35.37
2023-03-21T08:17:02.461Z,35.09
2023-03-21T08:20:09.244Z,34.74
2023-03-21T08:23:11.693Z,35.00
2023-03-21T08:26:18.166Z,34.98
2023-03-21T08:29:24.426Z,34.17
2023-03-21T08:32:30.277Z,34.12
2023-03-21T08:35:35.096Z,34.29
2023-03-21T08:38:37.675Z,32.80
2023-03-21T08:41:44.135Z,33.24
2023-03-21T08:44:51.707Z,33.91
2023-03-21T08:47:57.538Z,33.19
2023-03-21T08:51:01.736Z,32.38
2023-03-21T08:54:06.801Z,32.02
2023-03-21T08:57:09.553Z,31.82
2023-03-21T09:00:15.702Z,32.64
2023-03-21T09:03:22.033Z,32.67
2023-03-21T09:06:25.027Z,33.49
2023-03-21T09:09:30.434Z,32.74
2023-03-21T09:12:38.052Z,32.44
2023-03-21T09:15:40.998Z,31.68
2023-03-21T09:18:50.674Z,31.48
2023-03-21T09:21:53.976Z,31.32
2023-03-21T09:24:57.564Z,31.92
2023-03-21T09:28:01.069Z,31.00
2023-03-21T09:31:04.134Z,30.94
2023-03-21T09:34:06.557Z,31.23
2023-03-21T09:37:13.508Z,31.70
2023-03-21T09:40:24.204Z,30.11
2023-03-21T09:43:52.168Z,30.83
2023-03-21T09:47:22.671Z,32.16
2023-03-21T09:50:32.409Z,32.38
2023-03-21T09:58:02.467Z,33.04
2023-03-21T10:07:38.032Z,31.58
2023-03-21T10:10:50.361Z,30.38
2023-03-21T10:14:20.106Z,29.59
2023-03-21T10:17:37.775Z,30.29
2023-03-21T10:21:07.465Z,32.15
2023-03-21T10:24:15.899Z,31.06
2023-03-21T10:27:18.243Z,29.66
2023-03-21T10:30:39.033Z,29.79
2023-03-21T10:33:45.980Z,30.42
2023-03-21T10:36:50.811Z,28.89
2023-03-21T10:52:21.034Z,29.11
2023-03-21T10:55:33.811Z,29.00
2023-03-21T10:58:45.424Z,28.90
2023-03-21T11:01:55.507Z,28.95
2023-03-21T11:05:07.004Z,29.42
2023-03-21T11:08:14.135Z,29.60
2023-03-21T11:12:19.522Z,29.25
2023-03-21T11:15:40.334Z,28.01
2023-03-21T11:18:52.738Z,28.62
2023-03-21T11:21:58.218Z,28.26
2023-03-21T11:25:02.617Z,28.49
2023-03-21T11:28:19.402Z,28.85
2023-03-21T11:31:24.901Z,28.23
2023-03-21T11:34:32.556Z,29.31
2023-03-21T11:37:38.914Z,28.31
2023-03-21T11:41:09.628Z,27.76
2023-03-21T11:44:44.299Z,27.77
2023-03-21T11:47:49.462Z,28.43
2023-03-21T11:51:03.155Z,28.40
2023-03-21T11:54:25.431Z,28.27
2023-03-21T11:58:05.392Z,28.21
2023-03-21T12:05:24.568Z,28.77
2023-03-21T12:08:30.126Z,29.68
2023-03-21T12:12:13.250Z,28.84
2023-03-21T12:15:39.161Z,29.63
2023-03-21T12:18:56.750Z,29.52
2023-03-21T12:23:02.825Z,29.38
2023-03-21T12:27:09.462Z,30.54
2023-03-21T12:30:14.212Z,31.04
2023-03-21T12:33:37.992Z,31.12
2023-03-21T12:36:54.301Z,31.14
2023-03-21T12:40:09.979Z,31.88
2023-03-21T12:43:36.937Z,30.02
2023-03-21T12:47:01.134Z,29.43
2023-03-21T12:50:36.954Z,29.51
2023-03-21T12:53:48.454Z,28.78
2023-03-21T12:56:58.956Z,29.32
2023-03-21T13:00:21.965Z,29.01
2023-03-21T13:03:44.066Z,28.34
2023-03-21T13:06:47.511Z,28.39
2023-03-21T13:09:51.827Z,28.15
2023-03-21T13:13:28.794Z,27.69
2023-03-21T13:16:33.050Z,28.08
2023-03-21T13:19:51.679Z,29.61
2023-03-21T13:22:54.292Z,30.32
2023-03-21T13:25:57.888Z,31.74
2023-03-21T13:29:02.540Z,30.95
2023-03-21T13:32:20.973Z,30.43
2023-03-21T13:35:29.457Z,30.07
2023-03-21T13:38:34.473Z,30.49
2023-03-21T13:41:42.096Z,29.58
2023-03-21T13:44:50.397Z,28.94
2023-03-21T13:48:12.963Z,29.06
2023-03-21T13:51:24.217Z,29.23
2023-03-21T13:54:30.011Z,29.25
2023-03-21T13:57:33.309Z,29.34
2023-03-21T14:00:39.852Z,29.22
2023-03-21T14:03:42.798Z,28.98
2023-03-21T14:06:47.936Z,29.27
2023-03-21T14:09:52.705Z,29.13
2023-03-21T14:12:55.056Z,29.42
2023-03-21T14:16:04.566Z,29.04
2023-03-21T14:19:10.238Z,29.83
2023-03-21T14:22:13.878Z,29.72
2023-03-21T14:25:18.214Z,29.57
2023-03-21T14:28:29.575Z,30.19
2023-03-21T14:31:33.055Z,30.43
2023-03-21T14:34:35.887Z,29.67
2023-03-21T14:37:41.651Z,29.25
2023-03-21T14:40:53.744Z,28.91
2023-03-21T14:44:12.610Z,29.32
2023-03-21T14:47:20.998Z,29.58
2023-03-21T14:50:32.952Z,30.19
2023-03-21T14:53:40.949Z,30.45
2023-03-21T14:56:47.760Z,30.54
2023-03-21T14:59:56.724Z,30.93
2023-03-21T15:03:00.964Z,30.82
2023-03-21T15:06:04.057Z,31.92
2023-03-21T15:09:06.536Z,31.60
2023-03-21T15:12:09.393Z,31.47
2023-03-21T15:15:14.565Z,31.22
2023-03-21T15:18:23.899Z,31.61
2023-03-21T15:21:42.388Z,32.21
2023-03-21T15:24:58.768Z,32.16
2023-03-21T15:28:01.576Z,32.80
2023-03-21T15:31:05.265Z,31.61
2023-03-21T15:34:08.503Z,31.89
2023-03-21T15:37:37.671Z,31.87
2023-03-21T15:40:40.552Z,32.62
2023-03-21T15:43:43.863Z,33.18
2023-03-21T15:46:52.638Z,34.04
2023-03-21T15:49:55.876Z,34.41
2023-03-21T15:53:00.725Z,35.28
2023-03-21T15:56:06.143Z,35.67
2023-03-21T15:59:12.996Z,35.53
2023-03-21T16:02:22.118Z,36.43
2023-03-21T16:05:30.933Z,36.44
2023-03-21T16:08:35.917Z,36.51
2023-03-21T16:11:40.933Z,35.91
2023-03-21T16:14:43.646Z,36.57
2023-03-21T16:17:52.101Z,36.03
2023-03-21T16:20:57.253Z,35.88
2023-03-21T16:23:59.745Z,36.24
2023-03-21T16:27:02.581Z,35.78
2023-03-21T16:30:06.773Z,36.36
2023-03-21T16:33:12.859Z,36.62
2023-03-21T16:36:21.531Z,36.12
2023-03-21T16:39:26.426Z,36.14
2023-03-21T16:42:28.706Z,36.57
2023-03-21T16:45:31.824Z,36.39
2023-03-21T16:48:34.829Z,37.07
2023-03-21T16:51:37.134Z,37.33
2023-03-21T16:54:40.874Z,37.07
2023-03-21T16:57:43.647Z,37.58
2023-03-21T17:00:46.500Z,37.39
2023-03-21T17:03:48.988Z,37.41
2023-03-21T17:06:53.283Z,37.47
2023-03-21T17:09:55.848Z,37.89
2023-03-21T17:12:58.322Z,38.39
2023-03-21T17:16:00.817Z,38.22
2023-03-21T17:19:04.540Z,38.03
2023-03-21T17:22:07.229Z,37.62
2023-03-21T17:25:09.677Z,37.76
2023-03-21T17:28:12.098Z,37.96
2023-03-21T17:31:16.267Z,38.02
2023-03-21T17:34:18.793Z,38.74
2023-03-21T17:37:26.071Z,38.39
2023-03-21T17:40:31.139Z,38.41
2023-03-21T17:43:33.393Z,38.27
2023-03-21T17:46:37.260Z,38.61
2023-03-21T17:49:39.665Z,38.48
2023-03-21T17:52:42.333Z,38.35
2023-03-21T17:55:44.625Z,38.85
2023-03-21T17:58:47.328Z,38.78
2023-03-21T18:01:49.637Z,39.00
2023-03-21T18:04:52.100Z,39.35
2023-03-21T18:08:09.423Z,39.13
2023-03-21T18:11:13.144Z,38.78
2023-03-21T18:14:19.093Z,39.02
2023-03-21T18:17:22.753Z,39.51
2023-03-21T18:20:44.481Z,39.05
2023-03-21T18:23:50.067Z,39.53
2023-03-21T18:26:52.411Z,39.79
2023-03-21T18:30:25.897Z,39.88
2023-03-21T18:33:17.645Z,39.63
2023-03-21T18:36:25.417Z,39.55
2023-03-21T18:39:30.199Z,40.04
2023-03-21T18:42:32.879Z,39.60
2023-03-21T18:45:35.286Z,40.31
2023-03-21T18:48:37.514Z,39.71
2023-03-21T18:51:40.116Z,40.53
2023-03-21T18:54:42.943Z,40.58
2023-03-21T18:57:45.844Z,40.95
2023-03-21T19:00:49.991Z,41.53
2023-03-21T19:04:17.812Z,40.58
2023-03-21T19:07:22.089Z,40.41
2023-03-21T19:10:24.617Z,40.97
2023-03-21T19:13:27.226Z,41.49
2023-03-21T19:16:32.644Z,41.49
2023-03-21T19:19:42.112Z,42.00
2023-03-21T19:22:45.509Z,42.25
2023-03-21T19:25:47.840Z,42.13
2023-03-21T19:28:50.180Z,41.99
2023-03-21T19:31:53.144Z,41.93
2023-03-21T19:34:56.005Z,41.92
2023-03-21T19:37:58.297Z,42.12
2023-03-21T19:41:01.583Z,42.26
2023-03-21T19:44:05.621Z,43.25
2023-03-21T19:47:07.921Z,42.92
2023-03-21T19:53:33.064Z,42.94
2023-03-21T19:56:35.495Z,43.43
2023-03-21T19:59:38.791Z,43.01
2023-03-21T20:02:41.355Z,43.66
2023-03-21T20:05:43.656Z,42.96
2023-03-21T20:12:08.506Z,42.66
2023-03-21T20:15:17.786Z,42.88
2023-03-21T20:18:24.104Z,42.58
2023-03-21T20:21:34.852Z,42.54
2023-03-21T20:24:43.601Z,43.03
2023-03-21T20:27:46.066Z,42.60
2023-03-21T20:30:53.802Z,43.03
2023-03-21T20:33:56.341Z,42.45
2023-03-21T20:36:59.004Z,42.75
2023-03-21T20:40:01.513Z,44.01
2023-03-21T20:43:33.438Z,42.98
2023-03-21T20:46:28.400Z,43.08
2023-03-21T20:49:30.758Z,43.82
2023-03-21T20:55:55.877Z,43.89
2023-03-21T20:59:12.223Z,43.66
2023-03-21T21:02:17.927Z,43.63
2023-03-21T21:05:35.712Z,44.13
2023-03-21T21:08:38.783Z,44.14
2023-03-21T21:15:03.924Z,44.05
2023-03-21T21:18:07.639Z,43.67
2023-03-21T21:21:10.691Z,44.37
2023-03-21T21:24:14.592Z,44.16
2023-03-21T21:27:17.262Z,44.56
2023-03-21T21:30:19.639Z,45.24
2023-03-21T21:33:22.715Z,44.41
2023-03-21T21:36:25.079Z,44.81
2023-03-21T21:39:27.781Z,45.59
2023-03-21T21:42:30.105Z,44.52
2023-03-21T21:45:32.556Z,45.24
2023-03-21T21:48:35.020Z,46.01
2023-03-21T21:51:37.397Z,46.31
2023-03-21T21:54:46.040Z,46.05
2023-03-21T21:57:50.775Z,46.46
2023-03-21T22:00:53.830Z,46.73
2023-03-21T22:03:57.681Z,46.20
2023-03-21T22:07:00.074Z,46.32
2023-03-21T22:10:02.308Z,46.30
2023-03-21T22:13:04.641Z,45.88
2023-03-21T22:16:07.475Z,46.13
2023-03-21T22:19:09.908Z,45.91
2023-03-21T22:22:12.218Z,46.12
2023-03-21T22:25:16.141Z,46.52
2023-03-21T22:28:22.126Z,46.81
2023-03-21T22:31:26.176Z,46.99
2023-03-21T22:34:28.506Z,47.49
2023-03-21T22:37:32.961Z,47.48
2023-03-21T22:40:35.563Z,47.77
2023-03-21T22:43:38.147Z,47.88
2023-03-21T22:46:40.859Z,48.54
2023-03-21T22:49:45.561Z,47.62
2023-03-21T22:52:47.884Z,48.21
2023-03-21T22:55:50.549Z,48.58
2023-03-21T22:58:52.986Z,48.44
2023-03-21T23:01:55.788Z,49.52
2023-03-21T23:04:58.091Z,48.68
2023-03-21T23:08:00.566Z,49.16
2023-03-21T23:11:09.846Z,49.71
2023-03-21T23:14:15.284Z,49.92
2023-03-21T23:17:17.728Z,50.98
2023-03-21T23:20:20.029Z,51.19
2023-03-21T23:23:22.304Z,51.59
2023-03-21T23:26:24.594Z,52.10
2023-03-21T23:29:26.929Z,52.14
2023-03-21T23:32:29.191Z,52.86
2023-03-21T23:35:34.779Z,52.90
2023-03-21T23:38:37.148Z,52.84
2023-03-21T23:41:41.495Z,52.77
2023-03-21T23:44:43.803Z,52.35
2023-03-21T23:47:46.120Z,52.74
2023-03-21T23:50:48.474Z,52.79
2023-03-21T23:53:51.535Z,52.71
2023-03-21T23:56:53.868Z,53.43
2023-03-21T23:59:56.300Z,54.08
